createdAt,value
2023-03-26T10:34:55.868Z,35.08
2023-03-26T10:37:52.450Z,31.55
2023-03-26T10:40:55.191Z,28.73
2023-03-26T10:43:36.458Z,27.35
2023-03-26T10:46:49.185Z,29.25
2023-03-26T10:49:35.853Z,28.90
2023-03-26T10:52:16.430Z,29.42
2023-03-26T10:55:08.998Z,27.38
2023-03-26T10:58:01.306Z,27.73
2023-03-26T11:00:41.493Z,26.27
2023-03-26T11:03:27.805Z,25.52
2023-03-26T11:06:33.936Z,25.60
2023-03-26T11:09:20.896Z,26.05
2023-03-26T11:12:01.225Z,23.40
2023-03-26T11:14:35.625Z,23.80
2023-03-26T11:17:40.181Z,23.00
2023-03-26T11:20:36.501Z,21.33
2023-03-26T11:23:17.307Z,20.45
2023-03-26T11:26:00.791Z,21.58
2023-03-26T11:29:03.645Z,23.55
2023-03-26T11:32:22.688Z,22.10
2023-03-26T11:35:17.409Z,21.45
2023-03-26T11:38:32.013Z,21.17
2023-03-26T11:41:05.700Z,22.17
2023-03-26T11:43:37.426Z,21.45
2023-03-26T11:46:13.317Z,21.58
2023-03-26T11:48:57.655Z,22.63
2023-03-26T11:51:35.860Z,23.45
2023-03-26T11:54:11.324Z,23.25
2023-03-26T11:57:04.764Z,26.48
2023-03-26T11:59:58.085Z,26.30
2023-03-26T12:02:39.530Z,29.00
2023-03-26T12:05:26.801Z,32.63
2023-03-26T12:08:03.040Z,33.80
2023-03-26T12:10:41.617Z,34.38
2023-03-26T12:13:39.797Z,37.55
2023-03-26T12:16:20.044Z,42.38
2023-03-26T12:19:28.951Z,40.88
2023-03-26T12:22:01.421Z,42.75
2023-03-26T12:24:36.554Z,38.25
2023-03-26T12:27:28.892Z,36.47
2023-03-26T12:30:20.691Z,34.17
2023-03-26T12:32:58.392Z,28.35
2023-03-26T12:35:35.066Z,26.52
2023-03-26T12:38:35.905Z,22.40
2023-03-26T12:44:43.318Z,24.75
2023-03-26T12:44:53.000Z,22.92
2023-03-26T12:47:59.507Z,23.30
2023-03-26T12:50:40.836Z,26.83
2023-03-26T12:53:53.263Z,28.95
2023-03-26T12:57:12.404Z,27.48
2023-03-26T13:00:35.067Z,24.70
2023-03-26T13:03:21.840Z,22.20
2023-03-26T13:05:59.653Z,19.38
2023-03-26T13:08:50.689Z,19.42
2023-03-26T13:11:50.310Z,17.83
2023-03-26T13:14:49.746Z,16.67
2023-03-26T13:17:54.619Z,18.52
2023-03-26T13:21:08.486Z,20.02
2023-03-26T13:24:17.575Z,22.17
2023-03-26T13:27:15.088Z,23.17
2023-03-26T13:30:05.446Z,23.17
2023-03-26T13:32:50.845Z,24.33
2023-03-26T13:35:43.024Z,27.17
2023-03-26T13:38:40.376Z,24.45
2023-03-26T13:41:40.478Z,22.48
2023-03-26T13:44:23.515Z,19.70
2023-03-26T13:47:41.149Z,18.05
2023-03-26T13:50:27.890Z,18.13
2023-03-26T13:53:12.546Z,18.40
2023-03-26T13:55:50.950Z,18.92
2023-03-26T13:58:34.804Z,21.40
2023-03-26T14:01:41.254Z,21.77
2023-03-26T14:04:25.486Z,22.73
2023-03-26T14:07:51.049Z,21.70
2023-03-26T14:10:31.236Z,22.27
2023-03-26T14:13:16.296Z,22.38
2023-03-26T14:16:21.365Z,22.67
2023-03-26T14:19:33.891Z,24.35
2023-03-26T14:23:05.756Z,24.05
2023-03-26T14:26:33.168Z,24.60
2023-03-26T14:30:02.812Z,26.20
2023-03-26T14:33:06.163Z,26.02
2023-03-26T14:35:56.733Z,25.52
2023-03-26T14:39:11.712Z,28.45
2023-03-26T14:41:59.629Z,28.27
2023-03-26T14:44:51.442Z,29.80
2023-03-26T14:47:27.657Z,31.48
2023-03-26T14:50:46.857Z,34.45
2023-03-26T14:53:48.978Z,33.63
2023-03-26T14:57:04.317Z,38.97
2023-03-26T15:00:20.299Z,41.47
2023-03-26T15:03:17.015Z,41.53
2023-03-26T15:06:16.477Z,43.97
2023-03-26T15:09:17.718Z,43.28
2023-03-26T15:12:13.569Z,44.08
2023-03-26T15:14:55.144Z,44.50
2023-03-26T15:18:12.359Z,42.47
2023-03-26T15:21:43.394Z,44.60
2023-03-26T15:24:32.729Z,42.85
2023-03-26T15:27:32.994Z,43.53
2023-03-26T15:31:06.664Z,44.13
2023-03-26T15:34:38.648Z,42.50
2023-03-26T15:37:21.174Z,43.17
2023-03-26T15:40:11.515Z,44.70
2023-03-26T15:43:01.711Z,45.55
2023-03-26T15:46:11.282Z,49.13
2023-03-26T15:49:12.556Z,42.78
2023-03-26T15:52:15.835Z,47.15
2023-03-26T15:55:11.285Z,47.72
2023-03-26T15:58:18.906Z,49.10
2023-03-26T16:01:25.143Z,48.33
2023-03-26T16:04:50.360Z,52.08
2023-03-26T16:08:11.447Z,47.35
2023-03-26T16:10:56.374Z,48.75
2023-03-26T16:13:55.095Z,47.38
2023-03-26T16:16:56.386Z,49.17
2023-03-26T16:19:49.735Z,47.72
2023-03-26T16:22:43.651Z,48.08
2023-03-26T16:25:29.246Z,48.58
2023-03-26T16:28:15.022Z,49.13
2023-03-26T16:31:36.225Z,48.38
2023-03-26T16:34:29.424Z,45.72
2023-03-26T16:37:18.251Z,46.70
2023-03-26T16:39:51.195Z,44.35
2023-03-26T16:42:42.730Z,51.20
2023-03-26T16:45:47.188Z,47.05
2023-03-26T16:48:56.756Z,47.00
2023-03-26T16:52:20.718Z,45.05
2023-03-26T16:55:34.627Z,46.97
2023-03-26T16:58:45.937Z,48.63
2023-03-26T17:01:46.014Z,48.22
2023-03-26T17:04:23.721Z,49.80
2023-03-26T17:07:20.336Z,44.72
2023-03-26T17:10:31.267Z,48.55
2023-03-26T17:13:24.891Z,43.75
2023-03-26T17:16:16.318Z,47.45
2023-03-26T17:19:15.744Z,47.88
2023-03-26T17:22:32.845Z,50.35
2023-03-26T17:25:27.931Z,43.50
2023-03-26T17:28:37.302Z,43.63
2023-03-26T17:31:41.572Z,43.80
2023-03-26T17:34:54.577Z,43.60
2023-03-26T17:37:41.128Z,48.17
2023-03-26T17:40:52.016Z,42.97
2023-03-26T17:43:50.191Z,44.92
2023-03-26T17:46:38.188Z,45.75
2023-03-26T17:49:15.068Z,42.20
2023-03-26T17:52:05.695Z,43.50
2023-03-26T17:54:55.529Z,44.58
2023-03-26T17:57:46.585Z,46.55
2023-03-26T18:00:25.789Z,42.38
2023-03-26T18:03:08.026Z,43.20
2023-03-26T18:05:40.711Z,43.42
2023-03-26T18:08:40.918Z,43.13
2023-03-26T18:11:46.589Z,42.50
2023-03-26T18:15:18.725Z,45.53
2023-03-26T18:17:51.428Z,43.70
2023-03-26T18:20:28.369Z,43.78
2023-03-26T18:23:28.759Z,42.63
2023-03-26T18:26:21.784Z,43.35
2023-03-26T18:29:16.075Z,46.08
2023-03-26T18:32:13.272Z,44.33
2023-03-26T18:34:58.869Z,46.58
2023-03-26T18:37:34.818Z,44.80
2023-03-26T18:40:24.750Z,43.70
2023-03-26T18:42:59.931Z,45.58
2023-03-26T18:45:36.293Z,44.92
2023-03-26T18:48:20.567Z,45.58
2023-03-26T18:51:06.138Z,44.33
2023-03-26T18:53:47.725Z,46.47
2023-03-26T18:56:42.495Z,43.22
2023-03-26T18:59:35.331Z,44.10
2023-03-26T19:02:14.066Z,46.55
2023-03-26T19:04:49.365Z,44.58
2023-03-26T19:07:27.107Z,47.70
2023-03-26T19:10:01.484Z,44.97
2023-03-26T19:12:35.856Z,46.65
2023-03-26T19:15:15.614Z,44.97
2023-03-26T19:17:56.822Z,45.20
2023-03-26T19:20:37.325Z,44.38
2023-03-26T19:23:21.351Z,44.60
2023-03-26T19:25:56.410Z,45.33
2023-03-26T19:28:37.080Z,43.85
2023-03-26T19:31:23.606Z,46.10
2023-03-26T19:34:14.109Z,46.20
2023-03-26T19:37:01.258Z,45.80
2023-03-26T19:39:42.022Z,42.33
2023-03-26T19:42:26.811Z,44.53
2023-03-26T19:45:03.283Z,44.00
2023-03-26T19:47:48.426Z,42.95
2023-03-26T19:50:35.490Z,45.63
2023-03-26T19:53:22.684Z,47.13
2023-03-26T19:56:19.819Z,44.33
2023-03-26T19:58:52.711Z,43.78
2023-03-26T20:01:28.962Z,45.60
2023-03-26T20:04:06.696Z,45.47
2023-03-26T20:06:43.613Z,46.45
2023-03-26T20:09:16.779Z,46.92
2023-03-26T20:11:50.462Z,44.88
2023-03-26T20:14:26.421Z,44.42
2023-03-26T20:16:59.445Z,46.13
2023-03-26T20:19:31.941Z,43.78
2023-03-26T20:22:05.960Z,43.55
2023-03-26T20:24:40.017Z,45.30
2023-03-26T20:27:14.109Z,44.22
2023-03-26T20:29:46.809Z,48.00
2023-03-26T20:32:26.451Z,46.88
2023-03-26T20:34:59.624Z,46.55
2023-03-26T20:37:32.270Z,46.00
2023-03-26T20:40:06.872Z,45.95
2023-03-26T20:42:40.579Z,46.47
2023-03-26T20:45:18.030Z,47.22
2023-03-26T20:47:51.649Z,46.42
2023-03-26T20:50:24.838Z,47.97
2023-03-26T20:52:59.933Z,44.47
2023-03-26T20:55:32.321Z,44.70
2023-03-26T20:58:04.936Z,43.58
2023-03-26T21:00:37.761Z,43.20
2023-03-26T21:03:14.463Z,45.95
2023-03-26T21:05:48.716Z,43.05
2023-03-26T21:08:23.158Z,44.85
2023-03-26T21:10:58.872Z,44.90
2023-03-26T21:14:01.212Z,43.53
2023-03-26T21:16:34.250Z,48.75
2023-03-26T21:19:07.268Z,47.50
2023-03-26T21:22:03.201Z,44.50
2023-03-26T21:25:03.548Z,47.72
2023-03-26T21:27:52.069Z,47.95
2023-03-26T21:30:25.027Z,50.75
2023-03-26T21:33:00.176Z,48.30
2023-03-26T21:38:22.550Z,50.55
2023-03-26T21:40:58.779Z,49.28
2023-03-26T21:43:32.052Z,50.80
2023-03-26T21:46:05.034Z,52.72
2023-03-26T21:48:37.903Z,52.50
2023-03-26T21:51:14.974Z,51.83
2023-03-26T21:53:49.074Z,50.05
2023-03-26T21:56:42.619Z,51.83
2023-03-26T21:59:56.030Z,50.35
2023-03-26T22:02:43.748Z,52.42
2023-03-26T22:05:23.307Z,57.08
2023-03-26T22:08:01.975Z,54.00
2023-03-26T22:10:34.664Z,54.72
2023-03-26T22:13:07.138Z,53.95
2023-03-26T22:15:39.524Z,52.42
2023-03-26T22:18:12.126Z,54.60
2023-03-26T22:20:46.754Z,58.72
2023-03-26T22:23:20.047Z,56.03
2023-03-26T22:25:52.772Z,57.55
2023-03-26T22:28:25.299Z,57.08
2023-03-26T22:30:58.377Z,56.83
2023-03-26T22:33:31.523Z,60.45
2023-03-26T22:36:06.080Z,61.28
2023-03-26T22:38:56.863Z,53.97
2023-03-26T22:41:32.060Z,57.60
2023-03-26T22:44:16.752Z,60.65
2023-03-26T22:46:52.576Z,57.88
2023-03-26T22:49:27.555Z,53.85
2023-03-26T22:52:00.003Z,55.88
2023-03-26T22:54:33.273Z,55.70
2023-03-26T22:57:05.801Z,56.28
2023-03-26T22:59:38.270Z,58.58
2023-03-26T23:02:12.515Z,56.60
2023-03-26T23:04:46.399Z,55.28
2023-03-26T23:07:18.856Z,54.97
2023-03-26T23:09:53.215Z,55.28
2023-03-26T23:12:25.939Z,55.92
2023-03-26T23:14:58.491Z,51.97
2023-03-26T23:17:35.539Z,52.92
2023-03-26T23:20:15.502Z,51.33
2023-03-26T23:22:48.255Z,55.03
2023-03-26T23:25:20.840Z,53.58
2023-03-26T23:27:53.898Z,58.22
2023-03-26T23:30:26.298Z,53.60
2023-03-26T23:32:58.765Z,54.75
2023-03-26T23:35:31.262Z,54.13
2023-03-26T23:38:03.698Z,55.60
2023-03-26T23:40:36.089Z,56.15
2023-03-26T23:43:08.585Z,56.85
2023-03-26T23:45:43.528Z,53.90
2023-03-26T23:48:17.702Z,56.17
2023-03-26T23:51:03.182Z,52.92
2023-03-26T23:53:37.248Z,51.42
2023-03-26T23:56:13.415Z,52.90
2023-03-26T23:58:45.889Z,54.00
